createdAt,value
2022-11-15T00:00:51.009Z,5.00
2022-11-15T00:03:36.766Z,7.35
2022-11-15T00:06:22.029Z,6.63
2022-11-15T00:09:07.543Z,5.88
2022-11-15T00:11:53.351Z,5.55
2022-11-15T00:14:38.710Z,5.05
2022-11-15T00:17:24.165Z,5.78
2022-11-15T00:20:10.286Z,5.35
2022-11-15T00:22:55.652Z,5.05
2022-11-15T00:25:41.442Z,5.57
2022-11-15T00:28:26.844Z,5.18
2022-11-15T00:31:14.453Z,5.13
2022-11-15T00:33:59.627Z,5.60
2022-11-15T00:36:45.076Z,5.22
2022-11-15T00:39:30.456Z,5.88
2022-11-15T00:42:16.062Z,5.10
2022-11-15T00:45:01.465Z,5.28
2022-11-15T00:47:47.552Z,5.10
2022-11-15T00:50:33.075Z,5.22
2022-11-15T00:53:18.850Z,5.00
2022-11-15T00:56:04.721Z,4.90
2022-11-15T00:58:49.984Z,4.90
2022-11-15T01:01:35.407Z,5.15
2022-11-15T01:04:20.919Z,5.32
2022-11-15T01:07:06.131Z,5.47
2022-11-15T01:09:51.808Z,5.75
2022-11-15T01:12:37.344Z,5.28
2022-11-15T01:15:22.978Z,5.60
2022-11-15T01:18:08.660Z,5.35
2022-11-15T01:20:57.313Z,4.90
2022-11-15T01:23:43.615Z,5.20
2022-11-15T01:26:30.127Z,5.30
2022-11-15T01:29:15.665Z,4.93
2022-11-15T01:32:01.339Z,5.32
2022-11-15T01:34:46.669Z,5.28
2022-11-15T01:37:32.157Z,5.45
2022-11-15T01:40:17.619Z,5.10
2022-11-15T01:43:28.230Z,6.00
2022-11-15T01:46:26.082Z,5.18
2022-11-15T01:49:20.905Z,4.97
2022-11-15T01:52:21.708Z,4.90
2022-11-15T01:55:37.085Z,5.38
2022-11-15T01:58:22.779Z,5.78
2022-11-15T02:01:08.823Z,5.18
2022-11-15T02:04:12.453Z,6.32
2022-11-15T02:06:58.053Z,8.57
2022-11-15T02:09:45.093Z,7.80
2022-11-15T02:12:32.447Z,6.95
2022-11-15T02:15:19.011Z,7.28
2022-11-15T02:18:28.994Z,6.07
2022-11-15T02:21:22.060Z,6.20
2022-11-15T02:24:40.940Z,5.70
2022-11-15T02:27:39.369Z,5.88
2022-11-15T02:30:53.152Z,6.15
2022-11-15T02:34:23.213Z,5.63
2022-11-15T02:37:08.788Z,6.97
2022-11-15T02:40:28.244Z,6.65
2022-11-15T02:43:36.898Z,6.13
2022-11-15T02:47:01.829Z,5.45
2022-11-15T02:49:54.351Z,5.82
2022-11-15T02:52:40.260Z,6.35
2022-11-15T02:55:37.723Z,5.70
2022-11-15T02:58:45.492Z,5.10
2022-11-15T03:01:46.041Z,5.22
2022-11-15T03:04:58.568Z,5.07
2022-11-15T03:08:07.825Z,4.97
2022-11-15T03:11:02.483Z,4.78
2022-11-15T03:13:57.773Z,4.23
2022-11-15T03:16:43.062Z,4.65
2022-11-15T03:19:40.566Z,4.90
2022-11-15T03:22:29.563Z,4.82
2022-11-15T03:25:21.061Z,4.90
2022-11-15T03:28:10.438Z,4.95
2022-11-15T03:30:57.439Z,5.00
2022-11-15T03:33:44.195Z,4.80
2022-11-15T03:36:33.154Z,4.55
2022-11-15T03:39:20.703Z,4.80
2022-11-15T03:42:13.639Z,4.70
2022-11-15T03:45:23.163Z,4.13
2022-11-15T03:48:22.446Z,4.75
2022-11-15T03:51:07.794Z,4.80
2022-11-15T03:53:52.987Z,4.22
2022-11-15T03:56:38.500Z,4.47
2022-11-15T03:59:24.059Z,4.68
2022-11-15T04:02:09.402Z,4.45
2022-11-15T04:04:54.662Z,4.15
2022-11-15T04:07:39.972Z,5.25
2022-11-15T04:10:25.538Z,4.88
2022-11-15T04:13:10.993Z,5.32
2022-11-15T04:15:56.435Z,5.30
2022-11-15T04:18:41.926Z,4.80
2022-11-15T04:21:45.768Z,5.18
2022-11-15T04:24:31.244Z,4.80
2022-11-15T04:27:16.786Z,5.20
2022-11-15T04:30:02.317Z,4.85
2022-11-15T04:32:47.796Z,4.45
2022-11-15T04:35:33.184Z,4.68
2022-11-15T04:38:18.497Z,4.78
2022-11-15T04:41:04.530Z,5.00
2022-11-15T04:43:50.097Z,5.00
2022-11-15T04:46:35.515Z,4.57
2022-11-15T04:49:20.902Z,4.65
2022-11-15T04:52:06.439Z,4.38
2022-11-15T04:54:52.087Z,4.70
2022-11-15T04:57:38.636Z,4.47
2022-11-15T05:00:23.957Z,4.70
2022-11-15T05:03:29.698Z,4.93
2022-11-15T05:09:00.715Z,4.90
2022-11-15T05:11:46.736Z,5.30
2022-11-15T05:14:32.199Z,4.85
2022-11-15T05:17:17.866Z,4.75
2022-11-15T05:20:03.505Z,5.15
2022-11-15T05:22:48.756Z,5.10
2022-11-15T05:25:34.405Z,5.80
2022-11-15T05:28:19.535Z,6.07
2022-11-15T05:31:07.556Z,6.47
2022-11-15T05:33:54.363Z,6.40
2022-11-15T05:36:43.437Z,6.78
2022-11-15T05:39:28.861Z,6.35
2022-11-15T05:42:16.058Z,6.88
2022-11-15T05:45:03.493Z,6.43
2022-11-15T05:47:49.995Z,5.97
2022-11-15T05:50:38.544Z,6.10
2022-11-15T05:53:25.737Z,5.53
2022-11-15T05:56:11.680Z,5.53
2022-11-15T05:58:59.981Z,5.80
2022-11-15T06:01:45.976Z,5.10
2022-11-15T06:04:31.643Z,5.15
2022-11-15T06:07:17.267Z,5.35
2022-11-15T06:10:02.656Z,5.40
2022-11-15T06:12:48.144Z,5.40
2022-11-15T06:15:37.414Z,5.63
2022-11-15T06:18:22.571Z,5.43
2022-11-15T06:21:08.084Z,5.43
2022-11-15T06:23:53.642Z,6.07
2022-11-15T06:26:39.170Z,6.18
2022-11-15T06:29:24.844Z,5.47
2022-11-15T06:32:10.279Z,5.63
2022-11-15T06:34:55.459Z,5.68
2022-11-15T06:37:42.040Z,5.63
2022-11-15T06:40:27.483Z,5.60
2022-11-15T06:43:13.211Z,5.55
2022-11-15T06:46:02.811Z,7.03
2022-11-15T06:48:50.123Z,6.47
2022-11-15T06:51:35.555Z,6.35
2022-11-15T06:54:21.970Z,5.80
2022-11-15T06:57:07.534Z,6.35
2022-11-15T06:59:53.260Z,5.63
2022-11-15T07:02:38.552Z,5.57
2022-11-15T07:05:23.843Z,5.32
2022-11-15T07:08:10.605Z,5.80
2022-11-15T07:11:00.811Z,5.45
2022-11-15T07:13:46.389Z,6.22
2022-11-15T07:16:31.857Z,6.25
2022-11-15T07:19:17.007Z,5.90
2022-11-15T07:22:02.407Z,6.25
2022-11-15T07:24:47.939Z,6.18
2022-11-15T07:27:33.636Z,6.70
2022-11-15T07:30:19.774Z,7.15
2022-11-15T07:33:05.289Z,7.28
2022-11-15T07:35:50.873Z,7.03
2022-11-15T07:38:42.395Z,7.97
2022-11-15T07:41:28.461Z,6.55
2022-11-15T07:44:13.998Z,6.15
2022-11-15T07:46:59.682Z,7.28
2022-11-15T07:49:45.043Z,6.30
2022-11-15T07:52:30.494Z,5.03
2022-11-15T07:55:16.079Z,4.78
2022-11-15T07:58:06.413Z,4.82
2022-11-15T08:00:51.727Z,4.32
2022-11-15T08:06:22.414Z,4.30
2022-11-15T08:09:08.164Z,4.80
2022-11-15T08:11:53.557Z,4.30
2022-11-15T08:14:39.552Z,4.07
2022-11-15T08:17:26.008Z,4.47
2022-11-15T08:20:12.050Z,4.05
2022-11-15T08:23:02.983Z,3.30
2022-11-15T08:25:48.322Z,3.78
2022-11-15T08:28:33.887Z,3.70
2022-11-15T08:31:20.211Z,4.07
2022-11-15T08:34:06.431Z,3.55
2022-11-15T08:36:52.084Z,3.80
2022-11-15T08:39:38.879Z,3.72
2022-11-15T08:42:24.483Z,3.78
2022-11-15T08:45:10.682Z,4.30
2022-11-15T08:47:56.661Z,4.00
2022-11-15T08:50:42.090Z,4.47
2022-11-15T08:53:27.750Z,4.72
2022-11-15T08:56:15.871Z,4.60
2022-11-15T08:59:01.113Z,4.57
2022-11-15T09:01:46.637Z,4.22
2022-11-15T09:04:32.597Z,4.75
2022-11-15T09:07:18.932Z,4.97
2022-11-15T09:10:05.061Z,4.80
2022-11-15T09:12:51.388Z,4.60
2022-11-15T09:15:37.154Z,4.00
2022-11-15T09:18:23.664Z,3.50
2022-11-15T09:21:10.421Z,3.42
2022-11-15T09:23:55.937Z,3.55
2022-11-15T09:26:41.749Z,3.72
2022-11-15T09:29:27.377Z,3.53
2022-11-15T09:32:12.741Z,3.60
2022-11-15T09:34:58.565Z,3.60
2022-11-15T09:37:44.007Z,3.65
2022-11-15T09:40:32.422Z,3.70
2022-11-15T09:43:28.298Z,3.45
2022-11-15T09:46:38.810Z,3.08
2022-11-15T09:49:32.993Z,3.08
2022-11-15T09:52:20.121Z,2.70
2022-11-15T09:54:55.180Z,3.10
2022-11-15T09:57:53.158Z,2.63
2022-11-15T10:00:51.490Z,2.67
2022-11-15T10:03:26.075Z,2.53
2022-11-15T10:08:32.826Z,2.03
2022-11-15T10:11:36.309Z,3.40
2022-11-15T10:13:52.302Z,2.35
2022-11-15T10:16:35.631Z,2.63
2022-11-15T10:19:33.970Z,2.40
2022-11-15T10:22:22.151Z,2.78
2022-11-15T10:24:51.556Z,2.47
2022-11-15T10:27:19.912Z,2.53
2022-11-15T10:29:51.468Z,2.40
2022-11-15T10:32:21.479Z,2.38
2022-11-15T10:34:50.550Z,2.50
2022-11-15T10:37:32.100Z,2.58
2022-11-15T10:40:18.189Z,3.38
2022-11-15T10:42:45.092Z,3.55
2022-11-15T10:45:26.558Z,2.53
2022-11-15T10:47:53.526Z,2.42
2022-11-15T10:50:32.550Z,2.30
2022-11-15T10:53:02.274Z,2.38
2022-11-15T10:55:32.623Z,2.30
2022-11-15T10:58:06.841Z,2.00
2022-11-15T11:00:40.762Z,2.35
2022-11-15T11:03:28.743Z,2.57
2022-11-15T11:06:13.950Z,2.30
2022-11-15T11:08:41.690Z,2.58
2022-11-15T11:11:09.322Z,2.25
2022-11-15T11:13:40.525Z,2.45
2022-11-15T11:16:15.722Z,2.70
2022-11-15T11:19:09.779Z,2.95
2022-11-15T11:21:53.095Z,2.50
2022-11-15T11:24:43.580Z,2.90
2022-11-15T11:27:13.203Z,3.13
2022-11-15T11:29:50.861Z,2.70
2022-11-15T11:32:29.878Z,2.40
2022-11-15T11:35:14.292Z,2.70
2022-11-15T11:38:03.236Z,2.40
2022-11-15T11:41:04.944Z,2.00
2022-11-15T11:43:45.423Z,2.63
2022-11-15T11:46:43.177Z,2.45
2022-11-15T11:49:24.592Z,2.63
2022-11-15T11:51:55.771Z,2.60
2022-11-15T11:54:38.016Z,2.95
2022-11-15T11:57:12.958Z,3.25
2022-11-15T12:00:04.837Z,2.78
2022-11-15T12:03:04.243Z,2.70
2022-11-15T12:05:37.913Z,2.17
2022-11-15T12:08:30.250Z,2.08
2022-11-15T12:11:15.553Z,2.33
2022-11-15T12:13:44.554Z,2.90
2022-11-15T12:16:19.900Z,2.95
2022-11-15T12:18:52.278Z,2.50
2022-11-15T12:21:36.671Z,2.70
2022-11-15T12:24:13.738Z,2.60
2022-11-15T12:26:52.248Z,2.40
2022-11-15T12:29:36.111Z,2.83
2022-11-15T12:32:04.733Z,2.10
2022-11-15T12:34:40.498Z,1.70
2022-11-15T12:37:39.428Z,2.38
2022-11-15T12:40:06.199Z,2.20
2022-11-15T12:42:58.179Z,2.00
2022-11-15T12:45:33.421Z,1.88
2022-11-15T12:48:18.778Z,3.00
2022-11-15T12:50:51.764Z,2.75
2022-11-15T12:53:28.511Z,2.58
2022-11-15T12:56:13.886Z,2.60
2022-11-15T12:58:53.845Z,2.17
2022-11-15T13:01:38.749Z,2.80
2022-11-15T13:04:27.164Z,2.50
2022-11-15T13:06:53.991Z,2.28
2022-11-15T13:09:33.363Z,2.10
2022-11-15T13:12:14.704Z,1.60
2022-11-15T13:14:44.790Z,1.55
2022-11-15T13:17:20.565Z,1.42
2022-11-15T13:19:53.534Z,1.40
2022-11-15T13:22:39.052Z,1.20
2022-11-15T13:25:20.148Z,1.35
2022-11-15T13:27:49.977Z,2.78
2022-11-15T13:30:25.286Z,2.53
2022-11-15T13:32:53.442Z,2.50
2022-11-15T13:35:24.963Z,2.10
2022-11-15T13:37:53.838Z,2.55
2022-11-15T13:40:28.441Z,2.33
2022-11-15T13:42:55.779Z,1.90
2022-11-15T13:45:22.686Z,1.90
2022-11-15T13:47:58.061Z,2.30
2022-11-15T13:50:30.646Z,2.40
2022-11-15T13:53:00.929Z,2.72
2022-11-15T13:55:29.430Z,2.83
2022-11-15T13:57:59.867Z,3.40
2022-11-15T14:00:26.744Z,2.88
2022-11-15T14:02:56.039Z,3.33
2022-11-15T14:05:25.778Z,3.42
2022-11-15T14:08:03.541Z,2.75
2022-11-15T14:10:37.049Z,3.08
2022-11-15T14:13:05.602Z,2.20
2022-11-15T14:15:35.662Z,3.10
2022-11-15T14:18:03.134Z,2.85
2022-11-15T14:20:34.540Z,2.50
2022-11-15T14:23:03.997Z,2.38
2022-11-15T14:25:32.595Z,2.70
2022-11-15T14:28:18.270Z,2.10
2022-11-15T14:30:51.239Z,2.10
2022-11-15T14:33:37.870Z,1.92
2022-11-15T14:36:11.439Z,2.20
2022-11-15T14:38:38.325Z,2.22
2022-11-15T14:41:05.607Z,2.25
2022-11-15T14:43:32.873Z,2.10
2022-11-15T14:46:00.206Z,2.20
2022-11-15T14:48:27.087Z,2.00
2022-11-15T14:50:53.833Z,2.17
2022-11-15T14:53:20.897Z,1.90
2022-11-15T14:55:47.845Z,2.03
2022-11-15T14:58:14.726Z,2.30
2022-11-15T15:00:42.680Z,2.00
2022-11-15T15:03:09.805Z,2.15
2022-11-15T15:05:44.989Z,2.30
2022-11-15T15:08:12.864Z,2.15
2022-11-15T15:10:42.850Z,2.17
2022-11-15T15:13:21.706Z,2.33
2022-11-15T15:15:50.191Z,2.00
2022-11-15T15:18:17.826Z,2.45
2022-11-15T15:20:46.873Z,2.33
2022-11-15T15:23:17.997Z,2.03
2022-11-15T15:25:46.629Z,2.30
2022-11-15T15:28:14.249Z,2.15
2022-11-15T15:30:41.641Z,2.10
2022-11-15T15:33:08.480Z,2.20
2022-11-15T15:35:36.175Z,2.05
2022-11-15T15:38:03.679Z,2.10
2022-11-15T15:40:33.024Z,2.20
2022-11-15T15:43:00.112Z,2.40
2022-11-15T15:45:28.474Z,2.30
2022-11-15T15:47:55.765Z,2.35
2022-11-15T15:50:29.225Z,2.60
2022-11-15T15:52:58.253Z,2.13
2022-11-15T15:55:25.575Z,2.50
2022-11-15T15:57:52.446Z,2.30
2022-11-15T16:00:21.107Z,2.35
2022-11-15T16:02:48.137Z,2.55
2022-11-15T16:05:15.000Z,2.30
2022-11-15T16:07:44.076Z,2.40
2022-11-15T16:10:22.570Z,2.50
2022-11-15T16:12:50.082Z,2.80
2022-11-15T16:15:17.413Z,2.83
2022-11-15T16:18:01.394Z,3.05
2022-11-15T16:20:37.157Z,2.70
2022-11-15T16:23:08.927Z,2.53
2022-11-15T16:25:39.529Z,2.70
2022-11-15T16:28:13.010Z,3.00
2022-11-15T16:30:39.928Z,3.17
2022-11-15T16:33:06.639Z,2.60
2022-11-15T16:35:33.515Z,2.70
2022-11-15T16:38:00.393Z,3.17
2022-11-15T16:40:32.623Z,3.17
2022-11-15T16:43:00.135Z,3.15
2022-11-15T16:45:29.279Z,3.15
2022-11-15T16:47:56.532Z,2.90
2022-11-15T16:50:29.346Z,2.80
2022-11-15T16:52:58.012Z,2.90
2022-11-15T16:55:28.249Z,2.80
2022-11-15T16:57:57.978Z,2.90
2022-11-15T17:00:25.873Z,2.90
2022-11-15T17:02:53.838Z,3.03
2022-11-15T17:05:23.220Z,2.85
2022-11-15T17:07:54.579Z,2.75
2022-11-15T17:10:23.443Z,2.78
2022-11-15T17:12:51.176Z,2.90
2022-11-15T17:15:18.551Z,2.85
2022-11-15T17:17:50.926Z,2.38
2022-11-15T17:20:19.309Z,3.22
2022-11-15T17:22:47.272Z,3.15
2022-11-15T17:25:14.506Z,3.42
2022-11-15T17:27:41.637Z,3.38
2022-11-15T17:30:11.916Z,3.45
2022-11-15T17:32:39.092Z,3.65
2022-11-15T17:35:12.077Z,3.10
2022-11-15T17:37:41.906Z,3.55
2022-11-15T17:40:09.369Z,3.90
2022-11-15T17:42:36.168Z,3.72
2022-11-15T17:45:08.418Z,3.50
2022-11-15T17:47:37.009Z,3.40
2022-11-15T17:50:04.377Z,3.70
2022-11-15T17:52:31.234Z,4.38
2022-11-15T17:54:58.072Z,3.63
2022-11-15T17:57:24.798Z,3.92
2022-11-15T17:59:51.653Z,3.42
2022-11-15T18:02:19.462Z,3.70
2022-11-15T18:04:46.322Z,3.70
2022-11-15T18:07:14.159Z,3.40
2022-11-15T18:09:43.742Z,3.55
2022-11-15T18:12:12.087Z,3.33
2022-11-15T18:14:39.309Z,3.40
2022-11-15T18:17:06.543Z,3.95
2022-11-15T18:19:33.705Z,3.40
2022-11-15T18:22:01.797Z,3.60
2022-11-15T18:24:38.420Z,3.50
2022-11-15T18:27:06.379Z,3.30
2022-11-15T18:29:35.417Z,3.30
2022-11-15T18:32:05.016Z,3.03
2022-11-15T18:34:33.964Z,3.13
2022-11-15T18:37:02.748Z,3.30
2022-11-15T18:39:30.236Z,3.33
2022-11-15T18:41:57.289Z,3.30
2022-11-15T18:44:24.022Z,3.22
2022-11-15T18:46:51.047Z,3.17
2022-11-15T18:49:19.597Z,3.38
2022-11-15T18:51:47.074Z,4.30
2022-11-15T18:54:16.228Z,4.63
2022-11-15T18:56:46.993Z,4.38
2022-11-15T18:59:15.052Z,4.30
2022-11-15T19:01:46.492Z,3.88
2022-11-15T19:04:17.489Z,3.50
2022-11-15T19:06:47.095Z,3.72
2022-11-15T19:09:16.178Z,3.80
2022-11-15T19:11:45.157Z,3.67
2022-11-15T19:14:14.501Z,3.80
2022-11-15T19:16:44.763Z,3.63
2022-11-15T19:19:16.790Z,3.83
2022-11-15T19:21:44.585Z,3.78
2022-11-15T19:24:11.888Z,3.78
2022-11-15T19:26:39.311Z,3.72
2022-11-15T19:29:07.936Z,3.35
2022-11-15T19:31:35.124Z,3.88
2022-11-15T19:34:04.795Z,4.60
2022-11-15T19:36:36.496Z,4.70
2022-11-15T19:39:08.266Z,4.38
2022-11-15T19:41:36.452Z,4.50
2022-11-15T19:44:03.602Z,4.60
2022-11-15T19:46:30.650Z,4.60
2022-11-15T19:48:57.843Z,4.68
2022-11-15T19:51:27.444Z,4.30
2022-11-15T19:53:57.182Z,4.32
2022-11-15T19:56:27.593Z,4.63
2022-11-15T19:58:58.143Z,4.50
2022-11-15T20:01:27.393Z,3.35
2022-11-15T20:03:57.985Z,3.63
2022-11-15T20:06:27.750Z,3.50
2022-11-15T20:08:54.828Z,3.05
2022-11-15T20:11:21.659Z,3.92
2022-11-15T20:13:48.514Z,3.45
2022-11-15T20:16:24.874Z,2.92
2022-11-15T20:18:53.138Z,3.28
2022-11-15T20:21:20.716Z,3.08
2022-11-15T20:23:47.939Z,3.00
2022-11-15T20:26:15.813Z,2.90
2022-11-15T20:28:44.702Z,2.92
2022-11-15T20:31:12.204Z,2.95
2022-11-15T20:33:39.243Z,2.35
2022-11-15T20:36:08.288Z,2.78
2022-11-15T20:38:35.467Z,4.95
2022-11-15T20:41:02.546Z,5.35
2022-11-15T20:43:29.526Z,5.38
2022-11-15T20:45:56.357Z,5.00
2022-11-15T20:48:23.156Z,5.10
2022-11-15T20:50:50.049Z,4.13
2022-11-15T20:53:19.299Z,4.57
2022-11-15T20:55:48.599Z,4.85
2022-11-15T20:58:17.010Z,4.97
2022-11-15T21:00:45.556Z,5.07
2022-11-15T21:03:14.112Z,5.05
2022-11-15T21:05:44.751Z,3.80
2022-11-15T21:08:12.681Z,4.20
2022-11-15T21:10:59.093Z,4.07
2022-11-15T21:13:26.662Z,4.35
2022-11-15T21:15:57.882Z,4.03
2022-11-15T21:18:25.130Z,4.00
2022-11-15T21:20:53.716Z,3.83
2022-11-15T21:23:20.748Z,3.33
2022-11-15T21:25:52.046Z,4.03
2022-11-15T21:28:18.990Z,3.38
2022-11-15T21:30:53.670Z,3.70
2022-11-15T21:33:21.498Z,3.45
2022-11-15T21:35:48.311Z,3.72
2022-11-15T21:38:15.478Z,3.25
2022-11-15T21:40:42.362Z,3.25
2022-11-15T21:43:09.107Z,3.00
2022-11-15T21:45:35.979Z,3.08
2022-11-15T21:48:03.005Z,2.53
2022-11-15T21:50:29.765Z,2.67
2022-11-15T21:52:56.661Z,2.90
2022-11-15T21:55:23.414Z,3.10
2022-11-15T21:57:50.231Z,2.40
2022-11-15T22:00:36.604Z,2.00
2022-11-15T22:03:03.732Z,2.30
2022-11-15T22:05:30.598Z,2.15
2022-11-15T22:07:57.370Z,2.20
2022-11-15T22:10:24.360Z,2.20
2022-11-15T22:12:52.644Z,2.00
2022-11-15T22:15:32.304Z,2.30
2022-11-15T22:18:07.641Z,2.33
2022-11-15T22:20:49.783Z,2.42
2022-11-15T22:23:16.692Z,2.30
2022-11-15T22:25:50.231Z,2.30
2022-11-15T22:28:32.271Z,2.30
2022-11-15T22:31:01.100Z,2.78
2022-11-15T22:33:30.076Z,2.50
2022-11-15T22:35:57.653Z,2.63
2022-11-15T22:38:25.172Z,2.63
2022-11-15T22:40:52.208Z,2.50
2022-11-15T22:43:20.715Z,2.33
2022-11-15T22:45:48.963Z,2.15
2022-11-15T22:48:16.784Z,1.98
2022-11-15T22:50:44.234Z,2.20
2022-11-15T22:53:11.348Z,1.85
2022-11-15T22:55:39.607Z,2.17
2022-11-15T22:58:06.787Z,2.00
2022-11-15T23:00:33.701Z,2.40
2022-11-15T23:03:00.884Z,2.00
2022-11-15T23:05:27.944Z,1.80
2022-11-15T23:07:54.831Z,1.90
2022-11-15T23:10:40.187Z,2.00
2022-11-15T23:13:18.545Z,2.38
2022-11-15T23:16:06.451Z,2.50
2022-11-15T23:18:38.654Z,2.75
2022-11-15T23:21:13.691Z,3.08
2022-11-15T23:23:40.846Z,2.28
2022-11-15T23:26:09.070Z,2.58
2022-11-15T23:28:36.363Z,2.45
2022-11-15T23:31:24.426Z,2.55
2022-11-15T23:34:00.143Z,2.75
2022-11-15T23:36:28.409Z,2.58
2022-11-15T23:38:55.461Z,2.50
2022-11-15T23:41:26.468Z,2.53
2022-11-15T23:43:53.421Z,2.20
2022-11-15T23:46:20.367Z,2.30
2022-11-15T23:48:47.479Z,2.58
2022-11-15T23:51:14.636Z,2.30
2022-11-15T23:53:41.662Z,2.45
2022-11-15T23:56:12.375Z,2.70
2022-11-15T23:58:39.767Z,2.38
